createdAt,value
2023-05-20T00:01:31.262Z,10.35
2023-05-20T00:04:15.821Z,10.48
2023-05-20T00:07:00.794Z,9.88
2023-05-20T00:09:45.622Z,10.07
2023-05-20T00:12:30.616Z,10.25
2023-05-20T00:15:15.159Z,9.85
2023-05-20T00:18:01.122Z,10.00
2023-05-20T00:20:46.168Z,9.88
2023-05-20T00:23:31.375Z,10.27
2023-05-20T00:26:16.580Z,9.45
2023-05-20T00:29:03.354Z,8.38
2023-05-20T00:31:48.338Z,8.93
2023-05-20T00:34:33.918Z,9.23
2023-05-20T00:37:19.147Z,8.73
2023-05-20T00:40:04.544Z,9.02
2023-05-20T00:42:49.274Z,9.63
2023-05-20T00:45:34.912Z,8.82
2023-05-20T00:48:21.503Z,8.38
2023-05-20T00:51:07.408Z,9.45
2023-05-20T00:53:52.959Z,8.95
2023-05-20T00:56:40.479Z,8.93
2023-05-20T00:59:26.730Z,8.93
2023-05-20T01:02:12.178Z,8.50
2023-05-20T01:04:57.515Z,8.40
2023-05-20T01:07:42.533Z,8.80
2023-05-20T01:10:29.889Z,9.05
2023-05-20T01:13:20.162Z,8.80
2023-05-20T01:18:55.019Z,8.35
2023-05-20T01:21:42.078Z,8.02
2023-05-20T01:24:28.146Z,7.82
2023-05-20T01:27:14.164Z,8.15
2023-05-20T01:30:00.449Z,8.00
2023-05-20T01:32:49.853Z,8.45
2023-05-20T01:35:36.284Z,7.57
2023-05-20T01:38:23.640Z,7.03
2023-05-20T01:41:09.175Z,7.55
2023-05-20T01:43:55.552Z,8.00
2023-05-20T01:46:40.611Z,8.23
2023-05-20T01:49:25.783Z,7.82
2023-05-20T01:52:10.933Z,7.88
2023-05-20T01:54:55.438Z,7.75
2023-05-20T01:57:40.535Z,7.50
2023-05-20T02:00:51.289Z,7.50
2023-05-20T02:03:36.498Z,7.72
2023-05-20T02:06:21.577Z,7.55
2023-05-20T02:09:07.343Z,8.02
2023-05-20T02:11:52.102Z,7.80
2023-05-20T02:14:37.076Z,7.47
2023-05-20T02:17:22.277Z,7.18
2023-05-20T02:20:08.123Z,7.72
2023-05-20T02:22:52.755Z,7.63
2023-05-20T02:25:37.690Z,7.63
2023-05-20T02:28:22.971Z,7.60
2023-05-20T02:31:07.716Z,7.53
2023-05-20T02:33:53.155Z,7.63
2023-05-20T02:36:38.245Z,7.45
2023-05-20T02:39:23.261Z,7.45
2023-05-20T02:42:08.851Z,7.50
2023-05-20T02:44:56.300Z,7.95
2023-05-20T02:47:41.200Z,7.82
2023-05-20T02:50:26.061Z,7.40
2023-05-20T02:53:11.113Z,7.88
2023-05-20T02:55:57.326Z,7.32
2023-05-20T02:58:42.106Z,7.30
2023-05-20T03:01:28.613Z,7.15
2023-05-20T03:04:13.868Z,7.53
2023-05-20T03:06:59.152Z,7.40
2023-05-20T03:09:44.012Z,7.15
2023-05-20T03:12:30.357Z,7.10
2023-05-20T03:15:15.309Z,7.70
2023-05-20T03:17:59.951Z,7.03
2023-05-20T03:20:46.084Z,7.03
2023-05-20T03:23:30.964Z,7.25
2023-05-20T03:26:16.318Z,7.00
2023-05-20T03:29:00.941Z,7.05
2023-05-20T03:31:45.854Z,6.88
2023-05-20T03:34:31.688Z,7.30
2023-05-20T03:37:17.392Z,6.65
2023-05-20T03:40:05.956Z,6.78
2023-05-20T03:42:53.628Z,6.60
2023-05-20T03:45:39.383Z,6.80
2023-05-20T03:48:25.828Z,6.00
2023-05-20T03:51:11.328Z,6.82
2023-05-20T03:53:56.360Z,6.45
2023-05-20T03:56:41.202Z,6.50
2023-05-20T03:59:26.940Z,6.72
2023-05-20T04:02:11.798Z,6.40
2023-05-20T04:04:57.184Z,6.07
2023-05-20T04:07:42.799Z,6.30
2023-05-20T04:10:27.810Z,5.68
2023-05-20T04:13:12.811Z,5.88
2023-05-20T04:15:58.354Z,6.38
2023-05-20T04:18:45.532Z,6.00
2023-05-20T04:21:31.071Z,5.88
2023-05-20T04:24:16.328Z,5.75
2023-05-20T04:27:01.561Z,5.75
2023-05-20T04:29:47.379Z,5.40
2023-05-20T04:32:34.514Z,5.65
2023-05-20T04:35:19.657Z,4.85
2023-05-20T04:38:07.969Z,5.43
2023-05-20T04:40:53.426Z,5.50
2023-05-20T04:43:39.528Z,5.10
2023-05-20T04:46:25.455Z,5.45
2023-05-20T04:49:10.619Z,5.05
2023-05-20T04:51:55.585Z,5.60
2023-05-20T04:54:40.968Z,4.63
2023-05-20T04:57:26.798Z,4.70
2023-05-20T05:00:12.786Z,4.65
2023-05-20T05:02:58.623Z,4.35
2023-05-20T05:05:44.183Z,4.53
2023-05-20T05:08:29.027Z,4.65
2023-05-20T05:11:13.691Z,4.60
2023-05-20T05:13:59.269Z,4.20
2023-05-20T05:16:45.210Z,4.20
2023-05-20T05:19:30.789Z,4.90
2023-05-20T05:22:15.889Z,4.10
2023-05-20T05:25:00.818Z,4.20
2023-05-20T05:27:48.699Z,3.78
2023-05-20T05:30:33.727Z,3.88
2023-05-20T05:33:19.394Z,3.72
2023-05-20T05:36:05.879Z,3.90
2023-05-20T05:38:51.385Z,3.78
2023-05-20T05:41:36.638Z,3.60
2023-05-20T05:44:21.475Z,3.55
2023-05-20T05:47:07.195Z,3.60
2023-05-20T05:49:52.737Z,3.60
2023-05-20T05:52:37.540Z,3.15
2023-05-20T05:55:25.682Z,3.85
2023-05-20T05:58:11.899Z,3.95
2023-05-20T06:00:56.993Z,4.25
2023-05-20T06:03:41.881Z,3.40
2023-05-20T06:06:27.031Z,3.70
2023-05-20T06:09:12.182Z,3.50
2023-05-20T06:11:57.243Z,3.47
2023-05-20T06:14:42.266Z,3.83
2023-05-20T06:17:27.037Z,3.58
2023-05-20T06:20:12.429Z,3.35
2023-05-20T06:22:57.671Z,3.70
2023-05-20T06:28:33.261Z,3.38
2023-05-20T06:31:18.911Z,3.30
2023-05-20T06:34:03.563Z,3.20
2023-05-20T06:36:48.758Z,3.33
2023-05-20T06:39:34.072Z,3.13
2023-05-20T06:42:20.664Z,2.85
2023-05-20T06:45:15.639Z,3.17
2023-05-20T06:48:07.365Z,3.13
2023-05-20T06:50:53.030Z,3.20
2023-05-20T06:53:37.652Z,2.92
2023-05-20T06:56:22.797Z,3.10
2023-05-20T06:59:07.719Z,2.85
2023-05-20T07:01:53.590Z,3.20
2023-05-20T07:04:39.415Z,3.10
2023-05-20T07:07:24.471Z,2.90
2023-05-20T07:10:09.464Z,3.35
2023-05-20T07:12:54.305Z,3.10
2023-05-20T07:15:39.279Z,2.90
2023-05-20T07:18:24.349Z,2.90
2023-05-20T07:21:11.129Z,2.80
2023-05-20T07:24:21.836Z,2.83
2023-05-20T07:27:06.709Z,3.10
2023-05-20T07:29:51.944Z,3.00
2023-05-20T07:32:37.219Z,2.65
2023-05-20T07:35:24.072Z,2.60
2023-05-20T07:38:11.469Z,2.72
2023-05-20T07:40:56.607Z,2.75
2023-05-20T07:43:42.448Z,2.75
2023-05-20T07:46:27.628Z,2.58
2023-05-20T07:49:12.650Z,2.55
2023-05-20T07:51:57.998Z,2.78
2023-05-20T07:54:43.232Z,2.70
2023-05-20T07:57:28.484Z,2.88
2023-05-20T08:00:14.129Z,2.92
2023-05-20T08:03:01.771Z,2.67
2023-05-20T08:05:55.567Z,2.40
2023-05-20T08:08:40.917Z,2.65
2023-05-20T08:11:31.013Z,2.72
2023-05-20T08:14:16.474Z,2.90
2023-05-20T08:17:05.931Z,2.70
2023-05-20T08:19:51.334Z,2.50
2023-05-20T08:22:36.993Z,2.90
2023-05-20T08:25:23.462Z,2.80
2023-05-20T08:28:08.585Z,2.50
2023-05-20T08:30:57.732Z,2.63
2023-05-20T08:33:42.713Z,2.70
2023-05-20T08:36:27.685Z,2.90
2023-05-20T08:39:12.569Z,3.13
2023-05-20T08:41:57.941Z,2.60
2023-05-20T08:44:46.953Z,2.83
2023-05-20T08:47:32.411Z,3.08
2023-05-20T08:50:17.515Z,2.53
2023-05-20T08:53:02.335Z,2.70
2023-05-20T08:55:53.340Z,2.60
2023-05-20T08:58:38.105Z,2.35
2023-05-20T09:01:26.601Z,2.60
2023-05-20T09:04:12.065Z,2.60
2023-05-20T09:06:56.840Z,2.55
2023-05-20T09:09:41.859Z,2.70
2023-05-20T09:12:26.498Z,2.35
2023-05-20T09:15:11.361Z,2.30
2023-05-20T09:17:59.800Z,2.47
2023-05-20T09:20:47.104Z,2.35
2023-05-20T09:23:32.099Z,2.53
2023-05-20T09:26:17.895Z,2.58
2023-05-20T09:29:02.939Z,2.47
2023-05-20T09:31:48.856Z,2.38
2023-05-20T09:34:34.331Z,2.60
2023-05-20T09:37:21.459Z,2.45
2023-05-20T09:40:10.870Z,2.60
2023-05-20T09:43:08.284Z,2.85
2023-05-20T09:45:54.848Z,2.50
2023-05-20T09:48:40.158Z,2.70
2023-05-20T09:51:27.972Z,2.70
2023-05-20T09:54:13.442Z,2.50
2023-05-20T09:57:00.246Z,2.70
2023-05-20T09:59:47.142Z,2.78
2023-05-20T10:02:33.852Z,2.42
2023-05-20T10:05:24.371Z,2.50
2023-05-20T10:08:24.447Z,2.85
2023-05-20T10:11:37.576Z,2.53
2023-05-20T10:14:35.644Z,2.92
2023-05-20T10:18:04.173Z,2.60
2023-05-20T10:20:50.281Z,2.75
2023-05-20T10:23:35.358Z,2.78
2023-05-20T10:26:21.802Z,2.65
2023-05-20T10:29:17.543Z,2.75
2023-05-20T10:32:02.469Z,2.50
2023-05-20T10:34:50.109Z,2.63
2023-05-20T10:37:45.323Z,2.42
2023-05-20T10:40:30.487Z,2.67
2023-05-20T10:43:18.144Z,2.70
2023-05-20T10:46:05.116Z,2.55
2023-05-20T10:51:38.795Z,2.40
2023-05-20T10:54:26.479Z,2.72
2023-05-20T10:57:11.711Z,2.45
2023-05-20T10:59:56.621Z,2.75
2023-05-20T11:02:42.479Z,2.75
2023-05-20T11:05:29.233Z,2.47
2023-05-20T11:08:27.720Z,2.50
2023-05-20T11:11:15.161Z,2.70
2023-05-20T11:14:00.168Z,2.75
2023-05-20T11:16:46.673Z,2.70
2023-05-20T11:19:31.652Z,2.50
2023-05-20T11:22:16.933Z,2.78
2023-05-20T11:25:05.700Z,2.70
2023-05-20T11:27:51.538Z,2.65
2023-05-20T11:30:37.010Z,2.53
2023-05-20T11:33:26.411Z,2.63
2023-05-20T11:36:26.377Z,2.35
2023-05-20T11:39:14.245Z,2.60
2023-05-20T11:41:59.104Z,2.63
2023-05-20T11:44:48.358Z,2.50
2023-05-20T11:47:33.995Z,2.60
2023-05-20T11:50:19.972Z,2.50
2023-05-20T11:53:06.899Z,2.88
2023-05-20T11:55:54.754Z,3.05
2023-05-20T11:58:39.981Z,2.70
2023-05-20T12:01:25.189Z,2.58
2023-05-20T12:04:13.528Z,2.90
2023-05-20T12:06:58.477Z,2.40
2023-05-20T12:09:43.240Z,2.58
2023-05-20T12:12:27.997Z,2.42
2023-05-20T12:15:13.255Z,2.60
2023-05-20T12:17:58.083Z,2.83
2023-05-20T12:20:42.750Z,2.58
2023-05-20T12:23:30.172Z,2.90
2023-05-20T12:26:15.526Z,2.90
2023-05-20T12:29:01.126Z,2.90
2023-05-20T12:31:46.335Z,2.90
2023-05-20T12:34:32.556Z,3.08
2023-05-20T12:37:17.536Z,2.67
2023-05-20T12:40:07.781Z,3.20
2023-05-20T12:42:52.562Z,2.70
2023-05-20T12:45:37.655Z,2.90
2023-05-20T12:48:22.615Z,2.80
2023-05-20T12:51:07.558Z,2.97
2023-05-20T12:53:52.549Z,2.72
2023-05-20T12:56:37.573Z,2.60
2023-05-20T12:59:22.388Z,2.53
2023-05-20T13:02:07.366Z,2.63
2023-05-20T13:04:52.363Z,2.63
2023-05-20T13:07:37.643Z,2.95
2023-05-20T13:10:23.209Z,2.47
2023-05-20T13:13:08.122Z,2.60
2023-05-20T13:15:54.302Z,2.55
2023-05-20T13:18:38.985Z,2.70
2023-05-20T13:21:23.984Z,2.55
2023-05-20T13:24:08.976Z,2.63
2023-05-20T13:26:54.301Z,2.70
2023-05-20T13:29:39.261Z,2.55
2023-05-20T13:32:24.452Z,2.60
2023-05-20T13:35:09.613Z,3.00
2023-05-20T13:37:54.633Z,2.60
2023-05-20T13:40:39.687Z,2.55
2023-05-20T13:43:26.411Z,2.50
2023-05-20T13:46:11.420Z,2.80
2023-05-20T13:48:56.488Z,2.70
2023-05-20T13:51:41.679Z,2.50
2023-05-20T13:54:26.873Z,2.60
2023-05-20T13:57:11.635Z,2.72
2023-05-20T13:59:56.716Z,2.80
2023-05-20T14:02:42.194Z,2.90
2023-05-20T14:05:27.408Z,2.53
2023-05-20T14:08:12.627Z,2.60
2023-05-20T14:10:57.902Z,2.80
2023-05-20T14:13:44.229Z,2.88
2023-05-20T14:16:31.337Z,2.70
2023-05-20T14:19:16.402Z,2.38
2023-05-20T14:22:01.324Z,2.40
2023-05-20T14:24:46.392Z,2.78
2023-05-20T14:27:31.432Z,2.30
2023-05-20T14:30:16.266Z,2.72
2023-05-20T14:33:01.304Z,2.30
2023-05-20T14:35:46.301Z,2.53
2023-05-20T14:38:31.630Z,2.25
2023-05-20T14:41:16.302Z,2.60
2023-05-20T14:44:01.218Z,2.35
2023-05-20T14:46:46.197Z,2.30
2023-05-20T14:49:32.332Z,2.30
2023-05-20T14:52:18.064Z,2.40
2023-05-20T14:55:03.468Z,2.42
2023-05-20T14:57:48.211Z,2.20
2023-05-20T15:00:33.528Z,2.38
2023-05-20T15:03:19.287Z,2.67
2023-05-20T15:06:04.861Z,2.28
2023-05-20T15:08:50.586Z,2.20
2023-05-20T15:11:35.808Z,2.22
2023-05-20T15:14:20.625Z,2.30
2023-05-20T15:17:05.914Z,2.55
2023-05-20T15:19:50.759Z,2.40
2023-05-20T15:22:35.666Z,2.30
2023-05-20T15:25:20.773Z,2.05
2023-05-20T15:28:05.743Z,2.22
2023-05-20T15:30:55.511Z,2.10
2023-05-20T15:36:25.471Z,2.30
2023-05-20T15:39:10.588Z,2.35
2023-05-20T15:41:55.607Z,2.00
2023-05-20T15:44:40.971Z,2.13
2023-05-20T15:47:25.719Z,2.10
2023-05-20T15:50:11.689Z,1.90
2023-05-20T15:52:57.037Z,2.10
2023-05-20T15:55:42.957Z,1.85
2023-05-20T15:58:28.718Z,2.00
2023-05-20T16:01:13.978Z,1.90
2023-05-20T16:03:59.257Z,1.83
2023-05-20T16:06:44.184Z,2.00
2023-05-20T16:09:29.701Z,1.77
2023-05-20T16:12:16.293Z,1.90
2023-05-20T16:15:01.558Z,1.77
2023-05-20T16:17:46.759Z,1.90
2023-05-20T16:20:32.084Z,1.60
2023-05-20T16:23:16.813Z,1.83
2023-05-20T16:26:02.154Z,1.75
2023-05-20T16:28:46.735Z,1.63
2023-05-20T16:31:31.702Z,1.80
2023-05-20T16:34:16.947Z,1.60
2023-05-20T16:37:02.108Z,1.90
2023-05-20T16:39:47.192Z,1.52
2023-05-20T16:42:31.924Z,1.70
2023-05-20T16:45:16.784Z,1.90
2023-05-20T16:48:01.864Z,1.60
2023-05-20T16:50:46.779Z,1.58
2023-05-20T16:53:31.543Z,1.50
2023-05-20T16:56:16.832Z,1.52
2023-05-20T16:59:01.729Z,1.67
2023-05-20T17:01:47.137Z,2.15
2023-05-20T17:04:32.374Z,1.70
2023-05-20T17:07:17.316Z,1.50
2023-05-20T17:10:02.665Z,1.63
2023-05-20T17:12:47.543Z,1.55
2023-05-20T17:15:36.320Z,1.40
2023-05-20T17:18:21.182Z,1.60
2023-05-20T17:21:06.482Z,1.55
2023-05-20T17:23:51.525Z,1.73
2023-05-20T17:26:36.295Z,1.48
2023-05-20T17:29:21.706Z,1.65
2023-05-20T17:32:07.436Z,1.80
2023-05-20T17:34:52.696Z,1.80
2023-05-20T17:37:37.389Z,1.55
2023-05-20T17:40:22.358Z,1.63
2023-05-20T17:43:07.456Z,1.50
2023-05-20T17:45:52.366Z,1.85
2023-05-20T17:48:37.600Z,1.75
2023-05-20T17:51:22.643Z,1.55
2023-05-20T17:54:07.921Z,1.70
2023-05-20T17:56:52.581Z,1.60
2023-05-20T17:59:41.224Z,2.33
2023-05-20T18:02:26.377Z,1.58
2023-05-20T18:05:12.339Z,1.67
2023-05-20T18:07:57.258Z,1.65
2023-05-20T18:10:44.212Z,1.70
2023-05-20T18:13:29.576Z,1.98
2023-05-20T18:16:14.374Z,1.48
2023-05-20T18:18:59.217Z,2.00
2023-05-20T18:21:44.291Z,1.80
2023-05-20T18:24:29.242Z,2.03
2023-05-20T18:27:14.768Z,2.10
2023-05-20T18:29:59.401Z,1.88
2023-05-20T18:32:44.318Z,1.70
2023-05-20T18:35:29.362Z,1.80
2023-05-20T18:38:14.371Z,1.52
2023-05-20T18:40:59.410Z,1.85
2023-05-20T18:43:44.295Z,1.80
2023-05-20T18:46:29.484Z,2.00
2023-05-20T18:49:14.492Z,1.95
2023-05-20T18:51:59.746Z,1.80
2023-05-20T18:54:44.754Z,2.13
2023-05-20T18:57:30.378Z,1.92
2023-05-20T19:00:16.697Z,1.83
2023-05-20T19:03:01.875Z,1.80
2023-05-20T19:05:46.982Z,1.90
2023-05-20T19:08:31.962Z,1.92
2023-05-20T19:11:16.906Z,1.80
2023-05-20T19:14:03.845Z,1.80
2023-05-20T19:16:49.009Z,1.63
2023-05-20T19:19:34.097Z,1.80
2023-05-20T19:22:18.993Z,1.73
2023-05-20T19:25:05.013Z,1.80
2023-05-20T19:27:50.049Z,1.90
2023-05-20T19:30:35.234Z,1.80
2023-05-20T19:33:20.959Z,1.73
2023-05-20T19:36:06.073Z,1.85
2023-05-20T19:38:51.102Z,1.92
2023-05-20T19:41:37.774Z,2.00
2023-05-20T19:44:23.214Z,1.60
2023-05-20T19:47:08.299Z,1.90
2023-05-20T19:49:53.066Z,1.80
2023-05-20T19:52:37.956Z,1.80
2023-05-20T19:55:22.806Z,2.08
2023-05-20T19:58:08.043Z,1.90
2023-05-20T20:00:53.335Z,2.38
2023-05-20T20:03:41.775Z,1.85
2023-05-20T20:06:26.647Z,2.05
2023-05-20T20:09:11.459Z,1.85
2023-05-20T20:11:56.605Z,1.98
2023-05-20T20:14:42.019Z,2.13
2023-05-20T20:17:27.062Z,2.47
2023-05-20T20:20:13.574Z,1.90
2023-05-20T20:22:58.822Z,2.00
2023-05-20T20:25:47.662Z,2.28
2023-05-20T20:28:33.165Z,2.30
2023-05-20T20:31:18.066Z,2.13
2023-05-20T20:34:02.635Z,2.00
2023-05-20T20:36:48.127Z,1.98
2023-05-20T20:39:34.106Z,2.00
2023-05-20T20:42:21.810Z,2.20
2023-05-20T20:45:07.818Z,2.10
2023-05-20T20:47:54.142Z,2.20
2023-05-20T20:50:39.564Z,2.28
2023-05-20T20:53:24.397Z,2.10
2023-05-20T20:56:09.897Z,2.35
2023-05-20T20:58:56.653Z,2.05
2023-05-20T21:01:41.823Z,2.45
2023-05-20T21:04:27.177Z,2.33
2023-05-20T21:07:17.686Z,2.30
2023-05-20T21:12:47.913Z,2.25
2023-05-20T21:15:32.728Z,2.20
2023-05-20T21:18:22.200Z,2.00
2023-05-20T21:21:11.545Z,2.10
2023-05-20T21:23:57.187Z,2.20
2023-05-20T21:26:42.156Z,2.20
2023-05-20T21:29:27.462Z,2.05
2023-05-20T21:32:12.115Z,2.22
2023-05-20T21:34:58.389Z,2.03
2023-05-20T21:37:43.508Z,2.17
2023-05-20T21:40:28.453Z,2.15
2023-05-20T21:43:13.426Z,2.08
2023-05-20T21:45:58.426Z,2.00
2023-05-20T21:48:43.851Z,2.03
2023-05-20T21:51:28.982Z,1.85
2023-05-20T21:54:14.323Z,1.98
2023-05-20T21:56:59.449Z,2.13
2023-05-20T21:59:44.911Z,2.15
2023-05-20T22:02:30.106Z,2.08
2023-05-20T22:05:15.091Z,2.30
2023-05-20T22:08:00.036Z,2.30
2023-05-20T22:10:45.006Z,2.60
2023-05-20T22:13:29.973Z,2.17
2023-05-20T22:16:16.371Z,2.10
2023-05-20T22:19:01.941Z,2.08
2023-05-20T22:21:50.673Z,2.20
2023-05-20T22:24:36.332Z,2.35
2023-05-20T22:27:21.235Z,2.00
2023-05-20T22:30:08.054Z,2.40
2023-05-20T22:32:53.273Z,2.38
2023-05-20T22:35:38.471Z,2.13
2023-05-20T22:38:23.569Z,2.33
2023-05-20T22:41:08.698Z,2.60
2023-05-20T22:43:53.623Z,2.40
2023-05-20T22:46:38.818Z,2.30
2023-05-20T22:49:24.512Z,2.35
2023-05-20T22:52:09.546Z,2.30
2023-05-20T22:54:54.938Z,2.35
2023-05-20T22:57:40.023Z,2.33
2023-05-20T23:00:25.153Z,2.42
2023-05-20T23:03:10.445Z,2.60
2023-05-20T23:05:55.266Z,2.80
2023-05-20T23:08:42.623Z,2.67
2023-05-20T23:11:28.312Z,3.03
2023-05-20T23:14:13.019Z,2.97
2023-05-20T23:16:58.108Z,2.88
2023-05-20T23:19:43.136Z,2.90
2023-05-20T23:22:29.999Z,3.15
2023-05-20T23:25:15.229Z,2.90
2023-05-20T23:28:00.622Z,2.90
2023-05-20T23:30:45.511Z,2.97
2023-05-20T23:33:30.061Z,4.28
2023-05-20T23:36:16.536Z,3.30
2023-05-20T23:39:02.294Z,3.28
2023-05-20T23:41:47.219Z,3.38
2023-05-20T23:44:31.969Z,3.80
2023-05-20T23:47:18.196Z,3.30
2023-05-20T23:50:03.800Z,3.35
2023-05-20T23:52:48.726Z,4.00
2023-05-20T23:55:34.678Z,3.63
2023-05-20T23:58:20.128Z,3.78
